createdAt,value
2023-04-27T00:00:23.826Z,3450.00
2023-04-27T00:01:23.839Z,3427.00
2023-04-27T00:02:24.072Z,3436.00
2023-04-27T00:03:24.001Z,3420.00
2023-04-27T00:04:24.041Z,3417.00
2023-04-27T00:05:24.039Z,3420.00
2023-04-27T00:06:23.872Z,3415.00
2023-04-27T00:07:23.815Z,3419.00
2023-04-27T00:08:23.843Z,3419.00
2023-04-27T00:09:23.890Z,3407.00
2023-04-27T00:10:23.863Z,3410.00
2023-04-27T00:11:23.840Z,3410.00
2023-04-27T00:12:23.831Z,3400.00
2023-04-27T00:13:23.857Z,3408.00
2023-04-27T00:14:23.872Z,3398.00
2023-04-27T00:15:23.880Z,3406.00
2023-04-27T00:16:23.875Z,3398.00
2023-04-27T00:17:23.873Z,3387.00
2023-04-27T00:18:23.852Z,3377.00
2023-04-27T00:19:23.915Z,3379.00
2023-04-27T00:20:23.906Z,3380.00
2023-04-27T00:21:23.894Z,3380.00
2023-04-27T00:22:23.981Z,3388.00
2023-04-27T00:23:23.983Z,3377.00
2023-04-27T00:24:23.947Z,3370.00
2023-04-27T00:25:23.994Z,3378.00
2023-04-27T00:26:24.003Z,3362.00
2023-04-27T00:27:24.007Z,3385.00
2023-04-27T00:28:24.011Z,3374.00
2023-04-27T00:29:23.987Z,3363.00
2023-04-27T00:30:23.992Z,3376.00
2023-04-27T00:31:24.041Z,3373.00
2023-04-27T00:32:24.060Z,3358.00
2023-04-27T00:33:23.977Z,3361.00
2023-04-27T00:34:23.999Z,3338.00
2023-04-27T00:35:23.986Z,3338.00
2023-04-27T00:36:24.029Z,3346.00
2023-04-27T00:37:24.029Z,3345.00
2023-04-27T00:38:24.041Z,3327.00
2023-04-27T00:39:24.031Z,3332.00
2023-04-27T00:40:24.057Z,3325.00
2023-04-27T00:41:24.109Z,3322.00
2023-04-27T00:42:24.125Z,3331.00
2023-04-27T00:43:24.145Z,3339.00
2023-04-27T00:44:24.231Z,3319.00
2023-04-27T00:45:24.237Z,3308.00
2023-04-27T00:46:24.389Z,3324.00
2023-04-27T00:47:24.289Z,3324.00
2023-04-27T00:48:24.309Z,3318.00
2023-04-27T00:49:24.361Z,3307.00
2023-04-27T00:50:24.365Z,3310.00
2023-04-27T00:51:24.410Z,3301.00
2023-04-27T00:52:24.437Z,3301.00
2023-04-27T00:53:24.502Z,3292.00
2023-04-27T00:54:24.508Z,3301.00
2023-04-27T00:55:24.562Z,3295.00
2023-04-27T00:56:24.536Z,3291.00
2023-04-27T00:57:24.565Z,3294.00
2023-04-27T00:58:24.601Z,3305.00
2023-04-27T00:59:24.644Z,3298.00
2023-04-27T01:00:24.641Z,3283.00
2023-04-27T01:01:24.711Z,3285.00
2023-04-27T01:02:24.865Z,3276.00
2023-04-27T01:03:24.848Z,3268.00
2023-04-27T01:04:24.835Z,3270.00
2023-04-27T01:05:24.680Z,3265.00
2023-04-27T01:06:24.728Z,3270.00
2023-04-27T01:07:24.686Z,3274.00
2023-04-27T01:08:24.692Z,3270.00
2023-04-27T01:09:24.709Z,3272.00
2023-04-27T01:10:24.717Z,3266.00
2023-04-27T01:11:24.754Z,3266.00
2023-04-27T01:12:24.730Z,3261.00
2023-04-27T01:13:24.803Z,3257.00
2023-04-27T01:14:24.762Z,3253.00
2023-04-27T01:15:24.818Z,3252.00
2023-04-27T01:16:24.904Z,3251.00
2023-04-27T01:17:24.846Z,3246.00
2023-04-27T01:18:24.837Z,3247.00
2023-04-27T01:19:24.842Z,3245.00
2023-04-27T01:20:24.849Z,3249.00
2023-04-27T01:21:24.819Z,3249.00
2023-04-27T01:22:24.869Z,3243.00
2023-04-27T01:23:24.855Z,3237.00
2023-04-27T01:24:24.853Z,3248.00
2023-04-27T01:25:24.899Z,3232.00
2023-04-27T01:26:24.925Z,3237.00
2023-04-27T01:27:24.940Z,3239.00
2023-04-27T01:28:24.871Z,3224.00
2023-04-27T01:29:24.894Z,3241.00
2023-04-27T01:30:24.966Z,3237.00
2023-04-27T01:31:25.004Z,3232.00
2023-04-27T01:32:24.932Z,3227.00
2023-04-27T01:33:24.937Z,3242.00
2023-04-27T01:34:24.937Z,3219.00
2023-04-27T01:35:27.624Z,3220.00
2023-04-27T01:36:25.005Z,3228.00
2023-04-27T01:37:24.926Z,3235.00
2023-04-27T01:38:24.955Z,3226.00
2023-04-27T01:39:24.955Z,3227.00
2023-04-27T01:40:24.910Z,3221.00
2023-04-27T01:41:24.930Z,3214.00
2023-04-27T01:42:24.934Z,3208.00
2023-04-27T01:43:24.914Z,3206.00
2023-04-27T01:44:24.895Z,3192.00
2023-04-27T01:45:24.898Z,3192.00
2023-04-27T01:46:24.948Z,3193.00
2023-04-27T01:47:24.906Z,3202.00
2023-04-27T01:48:24.886Z,3201.00
2023-04-27T01:49:24.889Z,3188.00
2023-04-27T01:50:24.852Z,3191.00
2023-04-27T01:51:24.903Z,3182.00
2023-04-27T01:52:24.843Z,3181.00
2023-04-27T01:53:24.852Z,3183.00
2023-04-27T01:54:26.380Z,3185.00
2023-04-27T01:55:24.825Z,3186.00
2023-04-27T01:56:24.812Z,3188.00
2023-04-27T01:57:24.839Z,3189.00
2023-04-27T01:58:24.795Z,3192.00
2023-04-27T01:59:24.790Z,3193.00
2023-04-27T02:00:24.805Z,3190.00
2023-04-27T02:01:24.824Z,3186.00
2023-04-27T02:02:24.889Z,3171.00
2023-04-27T02:03:24.929Z,3172.00
2023-04-27T02:04:24.851Z,3177.00
2023-04-27T02:05:24.793Z,3173.00
2023-04-27T02:06:24.761Z,3177.00
2023-04-27T02:07:24.752Z,3167.00
2023-04-27T02:08:24.711Z,3173.00
2023-04-27T02:09:24.730Z,3172.00
2023-04-27T02:10:24.709Z,3165.00
2023-04-27T02:11:24.724Z,3167.00
2023-04-27T02:12:24.678Z,3163.00
2023-04-27T02:13:24.671Z,3159.00
2023-04-27T02:14:24.669Z,3160.00
2023-04-27T02:15:24.709Z,3169.00
2023-04-27T02:16:24.695Z,3149.00
2023-04-27T02:17:24.704Z,3152.00
2023-04-27T02:18:24.665Z,3163.00
2023-04-27T02:19:24.695Z,3150.00
2023-04-27T02:20:24.627Z,3148.00
2023-04-27T02:21:24.706Z,3140.00
2023-04-27T02:22:24.645Z,3134.00
2023-04-27T02:23:24.654Z,3153.00
2023-04-27T02:24:24.617Z,3137.00
2023-04-27T02:25:24.642Z,3150.00
2023-04-27T02:26:24.602Z,3138.00
2023-04-27T02:27:24.598Z,3133.00
2023-04-27T02:28:24.580Z,3120.00
2023-04-27T02:29:24.591Z,3117.00
2023-04-27T02:30:24.601Z,3112.00
2023-04-27T02:31:24.627Z,3135.00
2023-04-27T02:32:24.589Z,3116.00
2023-04-27T02:33:24.577Z,3119.00
2023-04-27T02:34:24.591Z,3114.00
2023-04-27T02:35:24.593Z,3115.00
2023-04-27T02:36:24.562Z,3111.00
2023-04-27T02:37:24.530Z,3109.00
2023-04-27T02:38:24.524Z,3107.00
2023-04-27T02:39:24.516Z,3097.00
2023-04-27T02:40:24.477Z,3108.00
2023-04-27T02:41:24.515Z,3106.00
2023-04-27T02:42:24.456Z,3100.00
2023-04-27T02:43:24.482Z,3106.00
2023-04-27T02:44:24.481Z,3099.00
2023-04-27T02:45:24.477Z,3090.00
2023-04-27T02:46:24.485Z,3099.00
2023-04-27T02:47:24.468Z,3100.00
2023-04-27T02:48:24.442Z,3084.00
2023-04-27T02:49:24.445Z,3086.00
2023-04-27T02:50:24.488Z,3085.00
2023-04-27T02:51:24.416Z,3082.00
2023-04-27T02:52:24.424Z,3068.00
2023-04-27T02:53:24.435Z,3077.00
2023-04-27T02:54:24.466Z,3064.00
2023-04-27T02:55:24.482Z,3069.00
2023-04-27T02:56:24.401Z,3067.00
2023-04-27T02:57:24.416Z,3068.00
2023-04-27T02:58:24.394Z,3071.00
2023-04-27T02:59:24.386Z,3059.00
2023-04-27T03:00:24.408Z,3065.00
2023-04-27T03:01:24.486Z,3053.00
2023-04-27T03:02:24.507Z,3042.00
2023-04-27T03:03:24.493Z,3054.00
2023-04-27T03:04:24.469Z,3066.00
2023-04-27T03:05:24.333Z,3062.00
2023-04-27T03:06:24.386Z,3055.00
2023-04-27T03:07:24.305Z,3049.00
2023-04-27T03:08:24.297Z,3048.00
2023-04-27T03:09:24.311Z,3048.00
2023-04-27T03:10:24.333Z,3043.00
2023-04-27T03:11:24.312Z,3051.00
2023-04-27T03:12:24.247Z,3039.00
2023-04-27T03:13:24.274Z,3044.00
2023-04-27T03:14:24.275Z,3040.00
2023-04-27T03:15:24.281Z,3040.00
2023-04-27T03:16:24.306Z,3041.00
2023-04-27T03:17:24.309Z,3037.00
2023-04-27T03:18:24.254Z,3028.00
2023-04-27T03:19:24.275Z,3031.00
2023-04-27T03:20:24.229Z,3020.00
2023-04-27T03:21:24.252Z,3032.00
2023-04-27T03:22:24.210Z,3021.00
2023-04-27T03:23:24.259Z,3022.00
2023-04-27T03:24:24.214Z,3016.00
2023-04-27T03:25:24.218Z,3006.00
2023-04-27T03:26:24.252Z,3014.00
2023-04-27T03:27:24.184Z,2997.00
2023-04-27T03:28:24.225Z,3005.00
2023-04-27T03:29:24.177Z,3011.00
2023-04-27T03:30:24.187Z,3000.00
2023-04-27T03:31:24.187Z,3006.00
2023-04-27T03:32:24.211Z,3006.00
2023-04-27T03:33:24.201Z,2989.00
2023-04-27T03:34:24.203Z,2996.00
2023-04-27T03:35:24.222Z,2982.00
2023-04-27T03:36:24.230Z,2978.00
2023-04-27T03:37:24.239Z,2983.00
2023-04-27T03:38:24.306Z,2985.00
2023-04-27T03:39:24.257Z,2982.00
2023-04-27T03:40:24.316Z,2970.00
2023-04-27T03:41:24.315Z,2987.00
2023-04-27T03:42:24.327Z,2986.00
2023-04-27T03:43:24.438Z,2978.00
2023-04-27T03:44:24.490Z,2970.00
2023-04-27T03:45:24.457Z,2979.00
2023-04-27T03:46:24.525Z,2975.00
2023-04-27T03:47:24.549Z,2994.00
2023-04-27T03:48:24.607Z,2973.00
2023-04-27T03:49:24.676Z,2984.00
2023-04-27T03:50:24.667Z,2972.00
2023-04-27T03:51:24.707Z,2965.00
2023-04-27T03:52:24.706Z,2967.00
2023-04-27T03:53:24.712Z,2966.00
2023-04-27T03:54:24.748Z,2957.00
2023-04-27T03:55:24.743Z,2964.00
2023-04-27T03:56:24.840Z,2971.00
2023-04-27T03:57:24.798Z,2952.00
2023-04-27T03:58:24.770Z,2956.00
2023-04-27T03:59:24.852Z,2955.00
2023-04-27T04:00:24.863Z,2944.00
2023-04-27T04:01:24.886Z,2948.00
2023-04-27T04:02:25.022Z,2941.00
2023-04-27T04:03:25.099Z,2934.00
2023-04-27T04:04:25.110Z,2956.00
2023-04-27T04:05:24.948Z,2936.00
2023-04-27T04:06:24.946Z,2916.00
2023-04-27T04:07:25.018Z,2910.00
2023-04-27T04:08:24.976Z,2903.00
2023-04-27T04:09:25.018Z,2893.00
2023-04-27T04:10:25.081Z,2853.00
2023-04-27T04:11:25.096Z,2847.00
2023-04-27T04:12:25.170Z,2819.00
2023-04-27T04:13:25.185Z,2818.00
2023-04-27T04:14:25.158Z,2801.00
2023-04-27T04:15:25.220Z,2779.00
2023-04-27T04:16:25.344Z,2767.00
2023-04-27T04:17:25.389Z,2744.00
2023-04-27T04:18:25.393Z,2739.00
2023-04-27T04:19:25.430Z,2716.00
2023-04-27T04:20:25.521Z,2713.00
2023-04-27T04:21:25.502Z,2695.00
2023-04-27T04:22:25.521Z,2692.00
2023-04-27T04:23:25.577Z,2668.00
2023-04-27T04:24:25.637Z,2665.00
2023-04-27T04:25:25.589Z,2652.00
2023-04-27T04:26:25.657Z,2641.00
2023-04-27T04:27:25.692Z,2645.00
2023-04-27T04:28:25.707Z,2608.00
2023-04-27T04:29:25.740Z,2594.00
2023-04-27T04:30:25.820Z,2598.00
2023-04-27T04:31:25.878Z,2569.00
2023-04-27T04:32:25.989Z,2577.00
2023-04-27T04:33:25.944Z,2573.00
2023-04-27T04:34:26.005Z,2564.00
2023-04-27T04:35:26.050Z,2552.00
2023-04-27T04:36:26.066Z,2558.00
2023-04-27T04:37:26.157Z,2551.00
2023-04-27T04:38:26.169Z,2553.00
2023-04-27T04:39:26.220Z,2551.00
2023-04-27T04:40:26.251Z,2548.00
2023-04-27T04:41:26.280Z,2540.00
2023-04-27T04:42:26.334Z,2533.00
2023-04-27T04:43:26.336Z,2545.00
2023-04-27T04:44:26.320Z,2538.00
2023-04-27T04:45:26.342Z,2535.00
2023-04-27T04:46:26.444Z,2544.00
2023-04-27T04:47:26.458Z,2528.00
2023-04-27T04:48:26.425Z,2527.00
2023-04-27T04:49:26.454Z,2527.00
2023-04-27T04:50:26.501Z,2519.00
2023-04-27T04:51:26.522Z,2510.00
2023-04-27T04:52:26.601Z,2528.00
2023-04-27T04:53:26.650Z,2538.00
2023-04-27T04:54:26.673Z,2523.00
2023-04-27T04:55:26.684Z,2524.00
2023-04-27T04:56:26.705Z,2517.00
2023-04-27T04:57:26.783Z,2519.00
2023-04-27T04:58:26.816Z,2503.00
2023-04-27T04:59:26.914Z,2527.00
2023-04-27T05:00:26.950Z,2512.00
2023-04-27T05:01:27.057Z,2525.00
2023-04-27T05:02:27.133Z,2523.00
2023-04-27T05:03:27.257Z,2509.00
2023-04-27T05:04:27.256Z,2524.00
2023-04-27T05:05:27.185Z,2515.00
2023-04-27T05:06:27.207Z,2508.00
2023-04-27T05:07:27.261Z,2497.00
2023-04-27T05:08:27.299Z,2511.00
2023-04-27T05:09:27.318Z,2507.00
2023-04-27T05:10:27.378Z,2508.00
2023-04-27T05:11:27.388Z,2484.00
2023-04-27T05:12:27.417Z,2510.00
2023-04-27T05:13:27.434Z,2482.00
2023-04-27T05:14:27.458Z,2487.00
2023-04-27T05:15:27.522Z,2490.00
2023-04-27T05:16:27.544Z,2497.00
2023-04-27T05:17:27.578Z,2474.00
2023-04-27T05:18:27.575Z,2473.00
2023-04-27T05:19:27.573Z,2477.00
2023-04-27T05:20:27.656Z,2473.00
2023-04-27T05:21:27.653Z,2479.00
2023-04-27T05:22:27.710Z,2457.00
2023-04-27T05:23:27.708Z,2470.00
2023-04-27T05:24:27.806Z,2460.00
2023-04-27T05:25:27.779Z,2465.00
2023-04-27T05:26:27.788Z,2462.00
2023-04-27T05:27:27.866Z,2457.00
2023-04-27T05:28:27.912Z,2472.00
2023-04-27T05:29:27.917Z,2469.00
2023-04-27T05:30:27.966Z,2462.00
2023-04-27T05:31:28.049Z,2462.00
2023-04-27T05:32:28.081Z,2456.00
2023-04-27T05:33:28.078Z,2469.00
2023-04-27T05:34:28.167Z,2484.00
2023-04-27T05:35:28.208Z,2488.00
2023-04-27T05:36:28.310Z,2495.00
2023-04-27T05:37:28.332Z,2512.00
2023-04-27T05:38:28.303Z,2514.00
2023-04-27T05:39:28.369Z,2528.00
2023-04-27T05:40:28.411Z,2539.00
2023-04-27T05:41:28.454Z,2554.00
2023-04-27T05:42:28.452Z,2582.00
2023-04-27T05:43:28.470Z,2584.00
2023-04-27T05:44:28.585Z,2587.00
2023-04-27T05:45:28.596Z,2601.00
2023-04-27T05:46:28.548Z,2615.00
2023-04-27T05:47:28.617Z,2633.00
2023-04-27T05:48:28.555Z,2633.00
2023-04-27T05:49:28.619Z,2627.00
2023-04-27T05:50:28.573Z,2625.00
2023-04-27T05:51:28.649Z,2625.00
2023-04-27T05:52:29.092Z,2632.00
2023-04-27T05:53:28.639Z,2632.00
2023-04-27T05:54:28.654Z,2631.00
2023-04-27T05:55:28.656Z,2633.00
2023-04-27T05:56:28.733Z,2643.00
2023-04-27T05:57:28.724Z,2642.00
2023-04-27T05:58:28.690Z,2657.00
2023-04-27T05:59:28.693Z,2658.00
2023-04-27T06:00:28.790Z,2671.00
2023-04-27T06:01:28.777Z,2671.00
2023-04-27T06:02:29.161Z,2681.00
2023-04-27T06:03:28.970Z,2678.00
2023-04-27T06:04:28.851Z,2681.00
2023-04-27T06:05:28.867Z,2701.00
2023-04-27T06:06:28.790Z,2697.00
2023-04-27T06:07:28.838Z,2706.00
2023-04-27T06:08:28.759Z,2700.00
2023-04-27T06:09:28.769Z,2717.00
2023-04-27T06:10:28.759Z,2717.00
2023-04-27T06:11:28.896Z,2728.00
2023-04-27T06:12:28.772Z,2728.00
2023-04-27T06:13:28.819Z,2735.00
2023-04-27T06:14:28.783Z,2740.00
2023-04-27T06:15:28.780Z,2740.00
2023-04-27T06:16:28.895Z,2747.00
2023-04-27T06:17:28.922Z,2751.00
2023-04-27T06:18:29.066Z,2760.00
2023-04-27T06:19:28.872Z,2769.00
2023-04-27T06:20:28.863Z,2764.00
2023-04-27T06:21:28.844Z,2762.00
2023-04-27T06:22:28.796Z,2752.00
2023-04-27T06:23:29.126Z,2735.00
2023-04-27T06:24:28.817Z,2743.00
2023-04-27T06:25:29.387Z,2704.00
2023-04-27T06:26:28.829Z,2712.00
2023-04-27T06:27:28.861Z,2721.00
2023-04-27T06:28:28.861Z,2707.00
2023-04-27T06:29:28.854Z,2706.00
2023-04-27T06:30:29.094Z,2700.00
2023-04-27T06:31:28.926Z,2695.00
2023-04-27T06:32:28.987Z,2707.00
2023-04-27T06:33:29.030Z,2718.00
2023-04-27T06:34:29.081Z,2710.00
2023-04-27T06:35:29.095Z,2698.00
2023-04-27T06:36:29.117Z,2678.00
2023-04-27T06:37:29.582Z,2705.00
2023-04-27T06:38:29.114Z,2693.00
2023-04-27T06:39:29.113Z,2699.00
2023-04-27T06:40:29.591Z,2630.00
2023-04-27T06:41:29.152Z,2492.00
2023-04-27T06:42:29.145Z,2421.00
2023-04-27T06:43:29.144Z,2476.00
2023-04-27T06:44:29.184Z,2525.00
2023-04-27T06:45:29.619Z,2548.00
2023-04-27T06:46:29.301Z,2583.00
2023-04-27T06:47:29.401Z,2598.00
2023-04-27T06:48:29.326Z,2604.00
2023-04-27T06:49:29.395Z,2598.00
2023-04-27T06:50:29.451Z,2586.00
2023-04-27T06:51:29.434Z,2586.00
2023-04-27T06:52:29.532Z,2580.00
2023-04-27T06:53:29.465Z,2594.00
2023-04-27T06:54:29.459Z,2582.00
2023-04-27T06:55:29.469Z,2552.00
2023-04-27T06:56:29.481Z,2558.00
2023-04-27T06:57:29.509Z,2528.00
2023-04-27T06:58:29.479Z,2550.00
2023-04-27T06:59:29.734Z,2527.00
2023-04-27T07:00:29.462Z,2545.00
2023-04-27T07:01:29.856Z,2533.00
2023-04-27T07:02:29.513Z,2484.00
2023-04-27T07:03:29.597Z,2456.00
2023-04-27T07:04:29.516Z,2449.00
2023-04-27T07:05:29.530Z,2464.00
2023-04-27T07:06:29.543Z,2479.00
2023-04-27T07:07:29.568Z,2476.00
2023-04-27T07:08:29.514Z,2468.00
2023-04-27T07:09:29.754Z,2467.00
2023-04-27T07:10:29.672Z,2438.00
2023-04-27T07:11:29.653Z,2459.00
2023-04-27T07:12:29.691Z,2481.00
2023-04-27T07:13:30.142Z,2500.00
2023-04-27T07:14:29.795Z,2511.00
2023-04-27T07:15:29.924Z,2530.00
2023-04-27T07:16:29.895Z,2544.00
2023-04-27T07:17:29.842Z,2542.00
2023-04-27T07:18:29.850Z,2555.00
2023-04-27T07:19:29.909Z,2583.00
2023-04-27T07:20:29.955Z,2596.00
2023-04-27T07:21:29.966Z,2610.00
2023-04-27T07:22:30.021Z,2617.00
2023-04-27T07:23:30.029Z,2612.00
2023-04-27T07:24:30.076Z,2608.00
2023-04-27T07:25:30.160Z,2615.00
2023-04-27T07:26:30.585Z,2607.00
2023-04-27T07:27:30.341Z,2610.00
2023-04-27T07:28:30.313Z,2609.00
2023-04-27T07:29:30.412Z,2620.00
2023-04-27T07:30:30.337Z,2598.00
2023-04-27T07:31:30.419Z,2579.00
2023-04-27T07:32:30.537Z,2559.00
2023-04-27T07:33:30.515Z,2548.00
2023-04-27T07:34:41.091Z,2562.00
2023-04-27T07:35:31.554Z,2563.00
2023-04-27T07:36:30.634Z,2564.00
2023-04-27T07:37:30.483Z,2557.00
2023-04-27T07:38:30.482Z,2503.00
2023-04-27T07:39:30.478Z,2449.00
2023-04-27T07:40:30.509Z,2428.00
2023-04-27T07:41:30.503Z,2390.00
2023-04-27T07:42:30.470Z,2350.00
2023-04-27T07:43:30.485Z,2304.00
2023-04-27T07:44:30.473Z,2353.00
2023-04-27T07:45:30.479Z,2392.00
2023-04-27T07:46:30.439Z,2401.00
2023-04-27T07:47:30.404Z,2400.00
2023-04-27T07:48:30.404Z,2397.00
2023-04-27T07:49:30.412Z,2372.00
2023-04-27T07:50:30.461Z,2330.00
2023-04-27T07:51:30.428Z,2289.00
2023-04-27T07:52:30.382Z,2327.00
2023-04-27T07:53:30.387Z,2352.00
2023-04-27T07:54:30.361Z,2339.00
2023-04-27T07:55:30.378Z,2362.00
2023-04-27T07:56:30.368Z,2371.00
2023-04-27T07:57:30.427Z,2397.00
2023-04-27T07:58:30.302Z,2396.00
2023-04-27T07:59:30.385Z,2375.00
2023-04-27T08:00:30.355Z,2421.00
2023-04-27T08:01:30.397Z,2440.00
2023-04-27T08:02:30.807Z,2447.00
2023-04-27T08:03:30.788Z,2462.00
2023-04-27T08:04:30.826Z,2478.00
2023-04-27T08:05:31.092Z,2490.00
2023-04-27T08:06:30.996Z,2513.00
2023-04-27T08:07:30.987Z,2501.00
2023-04-27T08:08:31.166Z,2524.00
2023-04-27T08:09:30.876Z,2548.00
2023-04-27T08:10:30.822Z,2551.00
2023-04-27T08:11:30.913Z,2561.00
2023-04-27T08:12:30.913Z,2574.00
2023-04-27T08:13:31.000Z,2565.00
2023-04-27T08:14:31.052Z,2562.00
2023-04-27T08:15:31.065Z,2562.00
2023-04-27T08:16:31.138Z,2568.00
2023-04-27T08:17:31.153Z,2591.00
2023-04-27T08:18:31.174Z,2600.00
2023-04-27T08:19:31.195Z,2583.00
2023-04-27T08:20:31.183Z,2590.00
2023-04-27T08:21:31.256Z,2622.00
2023-04-27T08:22:31.252Z,2615.00
2023-04-27T08:23:31.340Z,2613.00
2023-04-27T08:24:31.294Z,2609.00
2023-04-27T08:25:31.330Z,2620.00
2023-04-27T08:26:31.305Z,2636.00
2023-04-27T08:27:31.714Z,2616.00
2023-04-27T08:28:31.437Z,2626.00
2023-04-27T08:29:31.656Z,2660.00
2023-04-27T08:30:31.402Z,2674.00
2023-04-27T08:31:31.495Z,2607.00
2023-04-27T08:32:31.496Z,2606.00
2023-04-27T08:33:31.489Z,2559.00
2023-04-27T08:34:31.489Z,2516.00
2023-04-27T08:35:31.489Z,2578.00
2023-04-27T08:36:31.491Z,2562.00
2023-04-27T08:37:31.551Z,2499.00
2023-04-27T08:38:31.579Z,2495.00
2023-04-27T08:39:31.626Z,2471.00
2023-04-27T08:40:31.699Z,2390.00
2023-04-27T08:41:31.689Z,2390.00
2023-04-27T08:42:31.726Z,2442.00
2023-04-27T08:43:31.803Z,2439.00
2023-04-27T08:44:31.811Z,2482.00
2023-04-27T08:45:31.817Z,2494.00
2023-04-27T08:46:31.889Z,2510.00
2023-04-27T08:47:41.870Z,2517.00
2023-04-27T08:48:32.933Z,2517.00
2023-04-27T08:49:31.880Z,2523.00
2023-04-27T08:50:31.901Z,2523.00
2023-04-27T08:51:31.902Z,2536.00
2023-04-27T08:52:31.870Z,2563.00
2023-04-27T08:53:31.880Z,2562.00
2023-04-27T08:54:31.823Z,2546.00
2023-04-27T08:55:31.899Z,2571.00
2023-04-27T08:56:31.852Z,2558.00
2023-04-27T08:57:31.829Z,2568.00
2023-04-27T08:58:31.816Z,2561.00
2023-04-27T08:59:31.816Z,2559.00
2023-04-27T09:00:31.830Z,2588.00
2023-04-27T09:01:31.881Z,2591.00
2023-04-27T09:02:32.012Z,2628.00
2023-04-27T09:03:32.087Z,2631.00
2023-04-27T09:04:32.032Z,2627.00
2023-04-27T09:05:32.097Z,2651.00
2023-04-27T09:06:32.131Z,2652.00
2023-04-27T09:07:32.118Z,2636.00
2023-04-27T09:08:32.120Z,2680.00
2023-04-27T09:09:32.194Z,2694.00
2023-04-27T09:10:32.200Z,2651.00
2023-04-27T09:11:32.207Z,2636.00
2023-04-27T09:12:32.222Z,2633.00
2023-04-27T09:13:32.659Z,2672.00
2023-04-27T09:14:32.226Z,2696.00
2023-04-27T09:15:32.232Z,2700.00
2023-04-27T09:16:32.346Z,2727.00
2023-04-27T09:17:32.296Z,2669.00
2023-04-27T09:18:32.355Z,2564.00
2023-04-27T09:19:32.370Z,2480.00
2023-04-27T09:20:32.400Z,2463.00
2023-04-27T09:21:32.383Z,2491.00
2023-04-27T09:22:32.378Z,2524.00
2023-04-27T09:23:32.441Z,2588.00
2023-04-27T09:24:32.460Z,2584.00
2023-04-27T09:25:32.435Z,2642.00
2023-04-27T09:26:32.450Z,2586.00
2023-04-27T09:27:32.472Z,2583.00
2023-04-27T09:28:32.481Z,2602.00
2023-04-27T09:29:32.464Z,2546.00
2023-04-27T09:30:32.635Z,2564.00
2023-04-27T09:31:32.514Z,2568.00
2023-04-27T09:32:32.465Z,2600.00
2023-04-27T09:33:32.506Z,2655.00
2023-04-27T09:34:32.522Z,2711.00
2023-04-27T09:35:32.655Z,2768.00
2023-04-27T09:36:32.672Z,2776.00
2023-04-27T09:37:32.586Z,2776.00
2023-04-27T09:38:32.657Z,2821.00
2023-04-27T09:39:32.701Z,2815.00
2023-04-27T09:40:32.817Z,2810.00
2023-04-27T09:41:32.752Z,2799.00
2023-04-27T09:42:32.720Z,2839.00
2023-04-27T09:43:32.780Z,2810.00
2023-04-27T09:44:32.799Z,2776.00
2023-04-27T09:45:32.909Z,2769.00
2023-04-27T09:46:32.961Z,2829.00
2023-04-27T09:47:33.020Z,2870.00
2023-04-27T09:48:33.004Z,2938.00
2023-04-27T09:49:33.075Z,2942.00
2023-04-27T09:50:33.133Z,2930.00
2023-04-27T09:51:33.196Z,2971.00
2023-04-27T09:52:33.244Z,2956.00
2023-04-27T09:53:33.317Z,2960.00
2023-04-27T09:54:35.167Z,2979.00
2023-04-27T09:55:33.448Z,3010.00
2023-04-27T09:56:33.674Z,3007.00
2023-04-27T09:57:33.542Z,2996.00
2023-04-27T09:58:33.616Z,2946.00
2023-04-27T09:59:33.662Z,2940.00
2023-04-27T10:00:33.735Z,2922.00
2023-04-27T10:01:35.251Z,2939.00
2023-04-27T10:02:46.301Z,2834.00
2023-04-27T10:03:34.893Z,2737.00
2023-04-27T10:04:33.959Z,2635.00
2023-04-27T10:05:33.768Z,2522.00
2023-04-27T10:06:33.760Z,2573.00
2023-04-27T10:07:33.760Z,2543.00
2023-04-27T10:08:33.716Z,2480.00
2023-04-27T10:09:33.749Z,2462.00
2023-04-27T10:10:33.733Z,2401.00
2023-04-27T10:11:33.730Z,2383.00
2023-04-27T10:12:33.759Z,2379.00
2023-04-27T10:13:33.708Z,2403.00
2023-04-27T10:14:33.699Z,2365.00
2023-04-27T10:15:33.716Z,2263.00
2023-04-27T10:16:33.691Z,2244.00
2023-04-27T10:17:33.849Z,2285.00
2023-04-27T10:18:33.845Z,2263.00
2023-04-27T10:19:33.903Z,2254.00
2023-04-27T10:20:33.899Z,2227.00
2023-04-27T10:21:33.917Z,2255.00
2023-04-27T10:22:34.501Z,2259.00
2023-04-27T10:23:33.961Z,2333.00
2023-04-27T10:24:33.973Z,2468.00
2023-04-27T10:25:33.977Z,2462.00
2023-04-27T10:26:36.012Z,2358.00
2023-04-27T10:27:34.011Z,2381.00
2023-04-27T10:28:34.185Z,2179.00
2023-04-27T10:29:34.041Z,1826.00
2023-04-27T10:30:34.070Z,1411.00
2023-04-27T10:31:34.043Z,1651.00
2023-04-27T10:32:34.084Z,1803.00
2023-04-27T10:33:34.002Z,1724.00
2023-04-27T10:34:33.972Z,1684.00
2023-04-27T10:35:33.978Z,1716.00
2023-04-27T10:36:33.948Z,1645.00
2023-04-27T10:37:33.976Z,1749.00
2023-04-27T10:38:33.956Z,1694.00
2023-04-27T10:39:46.936Z,1658.00
2023-04-27T10:40:34.980Z,1661.00
2023-04-27T10:41:33.967Z,1668.00
2023-04-27T10:42:33.962Z,1696.00
2023-04-27T10:43:33.921Z,1613.00
2023-04-27T10:44:33.999Z,1594.00
2023-04-27T10:45:33.920Z,1525.00
2023-04-27T10:46:33.957Z,1536.00
2023-04-27T10:47:33.925Z,1558.00
2023-04-27T10:48:33.900Z,1584.00
2023-04-27T10:49:33.922Z,1710.00
2023-04-27T10:50:33.925Z,1714.00
2023-04-27T10:51:33.853Z,1837.00
2023-04-27T10:52:33.869Z,1894.00
2023-04-27T10:53:33.879Z,1905.00
2023-04-27T10:54:33.901Z,1888.00
2023-04-27T10:55:33.845Z,1805.00
2023-04-27T10:56:33.844Z,1866.00
2023-04-27T10:57:33.877Z,1881.00
2023-04-27T10:58:45.267Z,1896.00
2023-04-27T10:59:34.848Z,1883.00
2023-04-27T11:00:33.819Z,1908.00
2023-04-27T11:01:33.869Z,1868.00
2023-04-27T11:02:33.855Z,1910.00
2023-04-27T11:03:33.899Z,1844.00
2023-04-27T11:04:33.792Z,1869.00
2023-04-27T11:05:33.806Z,1928.00
2023-04-27T11:06:33.756Z,1971.00
2023-04-27T11:07:33.766Z,1870.00
2023-04-27T11:08:33.772Z,1706.00
2023-04-27T11:09:33.767Z,1747.00
2023-04-27T11:10:33.804Z,1744.00
2023-04-27T11:11:33.745Z,1748.00
2023-04-27T11:12:33.883Z,1735.00
2023-04-27T11:13:33.771Z,1754.00
2023-04-27T11:14:33.772Z,1739.00
2023-04-27T11:15:33.831Z,1657.00
2023-04-27T11:16:33.947Z,1708.00
2023-04-27T11:17:33.979Z,1691.00
2023-04-27T11:18:34.001Z,1605.00
2023-04-27T11:19:34.035Z,1557.00
2023-04-27T11:20:34.112Z,1563.00
2023-04-27T11:21:34.212Z,1744.00
2023-04-27T11:22:34.256Z,1706.00
2023-04-27T11:23:34.360Z,1643.00
2023-04-27T11:24:34.760Z,1636.00
2023-04-27T11:25:34.391Z,1620.00
2023-04-27T11:26:34.708Z,1631.00
2023-04-27T11:27:34.526Z,1606.00
2023-04-27T11:28:34.606Z,1602.00
2023-04-27T11:29:34.777Z,1569.00
2023-04-27T11:30:34.696Z,1599.00
2023-04-27T11:31:34.895Z,1541.00
2023-04-27T11:32:34.820Z,1538.00
2023-04-27T11:33:35.921Z,1512.00
2023-04-27T11:34:34.784Z,1497.00
2023-04-27T11:35:34.841Z,1453.00
2023-04-27T11:36:34.886Z,1544.00
2023-04-27T11:37:34.986Z,1531.00
2023-04-27T11:38:35.057Z,1447.00
2023-04-27T11:39:35.044Z,1529.00
2023-04-27T11:40:35.075Z,1512.00
2023-04-27T11:41:35.095Z,1479.00
2023-04-27T11:42:35.089Z,1518.00
2023-04-27T11:43:38.718Z,1616.00
2023-04-27T11:44:35.070Z,1733.00
2023-04-27T11:45:35.101Z,1817.00
2023-04-27T11:46:35.246Z,1683.00
2023-04-27T11:47:35.161Z,1708.00
2023-04-27T11:48:35.071Z,1619.00
2023-04-27T11:49:35.038Z,1557.00
2023-04-27T11:50:35.039Z,1482.00
2023-04-27T11:51:35.047Z,1402.00
2023-04-27T11:52:35.062Z,1317.00
2023-04-27T11:53:35.071Z,1297.00
2023-04-27T11:54:35.032Z,1307.00
2023-04-27T11:55:35.008Z,1296.00
2023-04-27T11:56:35.032Z,1325.00
2023-04-27T11:57:34.985Z,1328.00
2023-04-27T11:58:35.204Z,1195.00
2023-04-27T11:59:35.007Z,1299.00
2023-04-27T12:00:35.020Z,1287.00
2023-04-27T12:01:38.038Z,1270.00
2023-04-27T12:02:36.383Z,1204.00
2023-04-27T12:03:35.729Z,1046.00
2023-04-27T12:04:35.074Z,1130.00
2023-04-27T12:05:35.241Z,1075.00